Time;durP1;ratioP1;P1;durP2;ratioP2;P2;SDS_P1;SDS_P2;PMS_P1;PMS_P2;Temp;Humidity;BMP_temperature;BMP_pressure;BME280_temperature;BME280_humidity;BME280_pressure;Samples;Min_cycle;Max_cycle;Signal;HPM_P1;HPM_P2
2023/06/27 00:00:39;;;;;;;4.60;1.95;;;17.90;77.60;;;;;;5012486;28;20053;-76
2023/06/27 00:03:05;;;;;;;6.90;2.20;;;17.90;77.80;;;;;;5013630;28;20037;-76
2023/06/27 00:05:31;;;;;;;6.88;2.60;;;17.80;78.10;;;;;;5013868;28;20384;-76
2023/06/27 00:07:57;;;;;;;6.28;2.17;;;17.80;78.40;;;;;;4996259;28;20030;-74
2023/06/27 00:10:23;;;;;;;7.63;2.83;;;17.80;78.60;;;;;;4996143;28;20466;-75
2023/06/27 00:12:48;;;;;;;5.10;2.40;;;17.80;78.70;;;;;;5012286;28;20033;-75
2023/06/27 00:15:14;;;;;;;5.15;2.03;;;17.80;78.80;;;;;;5013470;28;20486;-74
2023/06/27 00:17:40;;;;;;;5.80;2.58;;;17.80;79.00;;;;;;5013568;28;20030;-74
2023/06/27 00:20:09;;;;;;;7.30;2.55;;;17.80;78.80;;;;;;5012342;28;20057;-76
2023/06/27 00:22:39;;;;;;;6.80;2.67;;;17.80;78.80;;;;;;5013502;28;20030;-74
2023/06/27 00:25:06;;;;;;;8.13;2.47;;;17.80;78.80;;;;;;5012148;28;20033;-74
2023/06/27 00:27:33;;;;;;;7.60;2.03;;;17.80;78.90;;;;;;5013387;28;20406;-75
2023/06/27 00:29:58;;;;;;;8.05;2.55;;;17.80;79.10;;;;;;4996185;28;20030;-75
2023/06/27 00:32:24;;;;;;;7.82;2.60;;;17.80;79.40;;;;;;5013370;28;20478;-74
2023/06/27 00:34:49;;;;;;;7.32;2.58;;;17.80;79.60;;;;;;5013366;28;20478;-74
2023/06/27 00:37:16;;;;;;;7.15;2.50;;;17.80;79.80;;;;;;5012419;28;20030;-74
2023/06/27 00:39:41;;;;;;;6.85;2.63;;;17.80;79.90;;;;;;5012341;28;20081;-74
2023/06/27 00:42:07;;;;;;;7.15;2.92;;;17.70;80.10;;;;;;5013212;28;20022;-74
2023/06/27 00:44:33;;;;;;;6.10;2.53;;;17.70;80.30;;;;;;5011931;28;20062;-76
2023/06/27 00:46:59;;;;;;;4.53;2.40;;;17.70;80.50;;;;;;5013336;28;20034;-76
2023/06/27 00:49:25;;;;;;;7.97;3.00;;;17.70;80.50;;;;;;5013308;28;20034;-76
2023/06/27 00:51:53;;;;;;;9.90;2.00;;;17.70;80.60;;;;;;4995736;28;20442;-75
2023/06/27 00:54:19;;;;;;;5.60;2.50;;;17.70;80.60;;;;;;5011885;28;20040;-75
2023/06/27 00:56:46;;;;;;;9.32;3.03;;;17.70;80.70;;;;;;5013415;28;20056;-74
2023/06/27 00:59:12;;;;;;;6.15;2.42;;;17.80;80.70;;;;;;5012222;28;20141;-76
2023/06/27 01:01:38;;;;;;;7.60;2.58;;;17.80;80.70;;;;;;5013237;28;20471;-76
2023/06/27 01:04:04;;;;;;;7.80;2.22;;;17.80;80.70;;;;;;5012030;28;20049;-76
2023/06/27 01:06:54;;;;;;;7.35;2.80;;;17.80;81.10;;;;;;5016461;28;20034;-76
2023/06/27 01:09:43;;;;;;;5.28;2.45;;;17.80;81.00;;;;;;5015391;28;20084;-77
2023/06/27 01:12:20;;;;;;;4.85;2.35;;;17.80;81.00;;;;;;5016618;28;20377;-75
2023/06/27 01:14:47;;;;;;;6.38;2.65;;;17.90;81.20;;;;;;5016669;28;20094;-77
2023/06/27 01:17:14;;;;;;;5.60;2.40;;;17.90;81.20;;;;;;5016586;28;20022;-77
2023/06/27 01:19:44;;;;;;;5.78;2.30;;;17.90;81.00;;;;;;5016536;28;20423;-77
2023/06/27 01:22:19;;;;;;;5.82;2.13;;;17.90;81.10;;;;;;5015400;28;20473;-77
2023/06/27 01:24:46;;;;;;;8.25;2.67;;;17.90;81.30;;;;;;5016657;28;20034;-77
2023/06/27 01:27:14;;;;;;;6.13;2.47;;;17.80;81.30;;;;;;5016592;28;20065;-77
2023/06/27 01:29:40;;;;;;;6.13;2.60;;;17.80;81.50;;;;;;5016602;28;20033;-77
2023/06/27 01:32:23;;;;;;;8.00;2.67;;;17.80;81.40;;;;;;5015266;28;20030;-76
2023/06/27 01:35:00;;;;;;;7.00;2.35;;;17.80;81.60;;;;;;5016280;28;20022;-77
2023/06/27 01:37:31;;;;;;;9.43;2.45;;;17.70;81.50;;;;;;5015015;28;20048;-75
2023/06/27 01:40:08;;;;;;;8.48;2.53;;;17.70;81.50;;;;;;5016164;28;20573;-75
2023/06/27 01:42:46;;;;;;;9.90;3.25;;;17.70;81.80;;;;;;5016102;28;20029;-75
2023/06/27 01:45:12;;;;;;;10.05;2.80;;;17.70;81.80;;;;;;5016362;28;20041;-77
2023/06/27 01:47:41;;;;;;;5.85;2.65;;;17.60;81.80;;;;;;5016251;28;20038;-77
2023/06/27 01:50:08;;;;;;;5.85;2.72;;;17.60;82.00;;;;;;5014866;28;20029;-77
2023/06/27 01:52:34;;;;;;;5.85;2.72;;;17.50;82.00;;;;;;5016067;28;20505;-77
2023/06/27 01:54:59;;;;;;;13.15;3.55;;;17.50;82.10;;;;;;5014665;28;20080;-77
2023/06/27 01:57:26;;;;;;;10.10;3.20;;;17.50;82.30;;;;;;5016050;28;20030;-77
2023/06/27 01:59:52;;;;;;;7.60;2.78;;;17.40;82.30;;;;;;5014600;28;20026;-77
2023/06/27 02:02:18;;;;;;;7.30;2.78;;;17.40;82.60;;;;;;5015820;28;20025;-75
2023/06/27 02:04:44;;;;;;;6.35;2.60;;;17.40;82.70;;;;;;4998500;28;20485;-75
2023/06/27 02:07:10;;;;;;;7.85;3.70;;;17.40;82.90;;;;;;5014560;28;20061;-75
2023/06/27 02:09:35;;;;;;;9.10;3.60;;;17.40;83.00;;;;;;4997920;28;20029;-75
2023/06/27 02:12:04;;;;;;;7.40;3.22;;;17.30;83.70;;;;;;4998071;28;20026;-75
2023/06/27 02:14:30;;;;;;;10.95;3.25;;;17.40;83.20;;;;;;5014375;28;20026;-75
2023/06/27 02:16:55;;;;;;;8.07;2.50;;;17.30;83.70;;;;;;5013964;28;20029;-76
2023/06/27 02:19:21;;;;;;;9.52;2.92;;;17.30;83.50;;;;;;4997976;28;20022;-75
2023/06/27 02:21:48;;;;;;;10.40;3.33;;;17.30;83.70;;;;;;5015455;28;20026;-77
2023/06/27 02:24:14;;;;;;;8.27;3.40;;;17.30;83.80;;;;;;4997917;28;20088;-77
2023/06/27 02:26:40;;;;;;;9.18;3.08;;;17.30;83.80;;;;;;5015315;28;20038;-77
2023/06/27 02:29:06;;;;;;;7.95;3.67;;;17.30;84.00;;;;;;5015355;28;20054;-77
2023/06/27 02:31:31;;;;;;;5.20;2.70;;;17.20;84.00;;;;;;5013986;28;20034;-77
2023/06/27 02:33:57;;;;;;;11.15;3.47;;;17.20;84.40;;;;;;5011056;28;20030;-77
2023/06/27 02:36:25;;;;;;;8.57;3.47;;;17.10;84.30;;;;;;5013870;28;20508;-77
2023/06/27 02:38:54;;;;;;;7.95;3.50;;;17.10;84.40;;;;;;5012012;28;20026;-77
2023/06/27 02:41:23;;;;;;;5.85;2.97;;;17.10;84.40;;;;;;5013534;28;20064;-75
2023/06/27 02:43:48;;;;;;;14.10;3.50;;;17.00;84.50;;;;;;4997498;28;20049;-76
2023/06/27 02:46:14;;;;;;;9.15;3.67;;;16.90;84.60;;;;;;4997321;28;20116;-76
2023/06/27 02:48:40;;;;;;;8.85;3.10;;;16.90;84.80;;;;;;5013125;28;20034;-75
2023/06/27 02:51:05;;;;;;;6.85;2.97;;;16.90;85.10;;;;;;4997499;28;20026;-77
2023/06/27 02:53:31;;;;;;;8.13;3.70;;;16.90;85.20;;;;;;5014799;28;20037;-75
2023/06/27 02:56:01;;;;;;;7.53;3.22;;;16.80;85.30;;;;;;5013614;28;20026;-75
2023/06/27 02:58:27;;;;;;;9.48;3.17;;;16.80;85.60;;;;;;5013668;28;20033;-75
2023/06/27 03:00:52;;;;;;;8.68;3.53;;;16.70;85.60;;;;;;5013579;28;20022;-76
2023/06/27 03:03:18;;;;;;;7.57;3.35;;;16.60;85.80;;;;;;4997169;28;20552;-75
2023/06/27 03:05:43;;;;;;;9.52;3.15;;;16.60;85.90;;;;;;4997229;28;20034;-75
2023/06/27 03:08:09;;;;;;;7.72;3.40;;;16.60;86.10;;;;;;4997092;28;20032;-77
2023/06/27 03:10:34;;;;;;;10.90;3.17;;;16.60;86.40;;;;;;5013742;28;20475;-77
2023/06/27 03:13:00;;;;;;;5.43;2.83;;;16.60;86.40;;;;;;5013428;28;20026;-75
2023/06/27 03:15:26;;;;;;;10.88;2.65;;;16.50;86.70;;;;;;5013181;28;20034;-75
2023/06/27 03:17:51;;;;;;;10.63;3.70;;;16.50;86.90;;;;;;4996811;28;20022;-75
2023/06/27 03:20:17;;;;;;;11.65;3.45;;;16.50;87.00;;;;;;5013168;28;20429;-75
2023/06/27 03:22:43;;;;;;;8.93;2.60;;;16.50;87.20;;;;;;5013163;28;20109;-75
2023/06/27 03:25:10;;;;;;;12.95;3.90;;;16.40;87.20;;;;;;4996851;28;20117;-75
2023/06/27 03:27:36;;;;;;;6.82;3.15;;;16.40;87.50;;;;;;5013650;28;20030;-77
2023/06/27 03:30:02;;;;;;;11.82;3.85;;;16.40;87.60;;;;;;5012871;28;20113;-77
2023/06/27 03:32:28;;;;;;;9.20;3.25;;;16.30;87.80;;;;;;5013293;28;20034;-77
2023/06/27 03:34:54;;;;;;;7.40;3.10;;;16.30;87.90;;;;;;5012870;28;20040;-77
2023/06/27 03:37:19;;;;;;;8.25;3.47;;;16.30;88.10;;;;;;5012923;28;20033;-77
2023/06/27 03:39:45;;;;;;;13.43;3.60;;;16.30;88.10;;;;;;5012894;28;20104;-77
2023/06/27 03:42:11;;;;;;;6.97;3.38;;;16.20;88.10;;;;;;4996582;28;20518;-77
2023/06/27 03:44:37;;;;;;;9.60;4.00;;;16.20;88.20;;;;;;5013897;28;20058;-77
2023/06/27 03:47:03;;;;;;;10.18;2.78;;;16.20;88.50;;;;;;5012947;28;20498;-77
2023/06/27 03:49:29;;;;;;;12.70;3.20;;;16.20;88.70;;;;;;5014015;28;20109;-76
2023/06/27 03:51:55;;;;;;;10.07;3.78;;;16.20;88.90;;;;;;5013929;28;20113;-76
2023/06/27 03:54:21;;;;;;;9.98;3.67;;;16.30;89.10;;;;;;5012591;28;20030;-77
2023/06/27 03:56:47;;;;;;;9.55;4.20;;;16.30;89.20;;;;;;5012600;28;20026;-77
2023/06/27 03:59:13;;;;;;;7.25;3.47;;;16.30;89.30;;;;;;5013846;28;20117;-77
2023/06/27 04:01:41;;;;;;;9.77;3.63;;;16.30;89.50;;;;;;5012632;28;20061;-76
2023/06/27 04:04:07;;;;;;;11.68;3.25;;;16.40;89.70;;;;;;5013712;28;20080;-77
2023/06/27 04:06:33;;;;;;;7.93;3.60;;;16.40;89.70;;;;;;5012469;28;20038;-77
2023/06/27 04:08:59;;;;;;;9.00;3.20;;;16.40;89.90;;;;;;5012329;28;20032;-77
2023/06/27 04:11:25;;;;;;;9.30;3.10;;;16.50;90.00;;;;;;5012475;28;20041;-75
2023/06/27 04:13:51;;;;;;;11.23;3.50;;;16.50;90.10;;;;;;5013447;28;20489;-75
2023/06/27 04:16:16;;;;;;;8.68;3.63;;;16.50;90.20;;;;;;5013781;28;20550;-75
2023/06/27 04:18:42;;;;;;;11.80;3.53;;;16.60;90.30;;;;;;5012303;28;20057;-75
2023/06/27 04:21:08;;;;;;;11.68;4.20;;;16.50;90.30;;;;;;4996037;28;20018;-75
2023/06/27 04:23:34;;;;;;;12.93;3.90;;;16.60;90.40;;;;;;5012438;28;20069;-75
2023/06/27 04:26:14;;;;;;;16.45;4.13;;;16.70;90.50;;;;;;5012216;28;20030;-75
2023/06/27 04:28:43;;;;;;;10.18;3.97;;;16.70;90.40;;;;;;5012096;28;20037;-75
2023/06/27 04:31:09;;;;;;;11.10;3.58;;;16.70;90.40;;;;;;5012081;28;20075;-75
2023/06/27 04:33:39;;;;;;;14.00;3.88;;;16.70;90.30;;;;;;5008791;28;20034;-75
2023/06/27 04:36:08;;;;;;;9.98;3.33;;;16.70;90.30;;;;;;5009478;28;20029;-75
2023/06/27 04:38:37;;;;;;;12.57;3.45;;;16.70;90.30;;;;;;5012944;28;20077;-76
2023/06/27 04:41:08;;;;;;;10.88;3.53;;;16.80;90.40;;;;;;5017081;28;20131;-76
2023/06/27 04:43:34;;;;;;;12.85;4.03;;;16.80;90.40;;;;;;5013145;28;20053;-76
2023/06/27 04:46:00;;;;;;;11.57;3.85;;;16.80;90.30;;;;;;5000380;28;20030;-76
2023/06/27 04:48:29;;;;;;;11.05;3.08;;;16.80;90.40;;;;;;4995086;28;20394;-77
2023/06/27 04:50:56;;;;;;;13.95;5.00;;;16.80;90.40;;;;;;4995222;28;20018;-76
2023/06/27 04:53:25;;;;;;;11.73;3.47;;;16.80;90.50;;;;;;4997455;28;20026;-76
2023/06/27 04:55:51;;;;;;;11.10;3.50;;;16.80;90.40;;;;;;5012661;28;20026;-76
2023/06/27 04:58:18;;;;;;;10.13;3.20;;;16.80;90.60;;;;;;5012582;28;20057;-76
2023/06/27 05:00:44;;;;;;;7.70;3.75;;;16.80;90.60;;;;;;4996115;28;20018;-76
2023/06/27 05:03:11;;;;;;;12.70;3.78;;;16.80;90.70;;;;;;4995908;28;20138;-76
2023/06/27 05:05:36;;;;;;;12.23;4.10;;;16.80;90.70;;;;;;4979890;28;20117;-75
2023/06/27 05:08:03;;;;;;;13.27;3.65;;;16.80;90.80;;;;;;4997227;28;20106;-75
2023/06/27 05:10:29;;;;;;;9.60;3.90;;;16.80;90.90;;;;;;4995933;28;20514;-75
2023/06/27 05:12:56;;;;;;;11.15;4.07;;;16.80;90.90;;;;;;4995892;28;20026;-75
2023/06/27 05:15:21;;;;;;;13.52;4.35;;;16.80;91.00;;;;;;4985963;28;20034;-76
2023/06/27 05:18:14;;;;;;;16.52;4.15;;;16.80;91.00;;;;;;4979839;28;20029;-75
2023/06/27 05:20:44;;;;;;;11.32;4.07;;;16.70;91.10;;;;;;4995958;28;20034;-75
2023/06/27 05:23:09;;;;;;;12.50;3.80;;;16.80;91.10;;;;;;4996974;28;20022;-76
2023/06/27 05:25:35;;;;;;;12.20;3.92;;;16.80;91.40;;;;;;4998015;28;20033;-76
2023/06/27 05:28:01;;;;;;;11.13;4.13;;;16.80;91.20;;;;;;5024794;28;20087;-76
2023/06/27 05:30:28;;;;;;;11.25;4.05;;;16.80;91.20;;;;;;5026344;28;20494;-76
2023/06/27 05:32:54;;;;;;;15.65;4.95;;;16.90;91.30;;;;;;5025211;28;20088;-76
2023/06/27 05:35:21;;;;;;;11.07;4.20;;;16.90;91.40;;;;;;5024499;28;20030;-76
2023/06/27 05:37:46;;;;;;;10.60;3.40;;;16.90;91.60;;;;;;5008662;28;20033;-76
2023/06/27 05:40:12;;;;;;;16.55;4.25;;;16.90;91.50;;;;;;5024732;28;20040;-76
2023/06/27 05:42:39;;;;;;;8.90;3.45;;;16.90;91.60;;;;;;5024284;28;20042;-77
2023/06/27 05:45:05;;;;;;;10.98;3.75;;;16.90;91.80;;;;;;5025207;28;20041;-76
2023/06/27 05:47:31;;;;;;;11.57;4.35;;;17.00;91.80;;;;;;5025404;28;20393;-76
2023/06/27 05:49:56;;;;;;;17.27;4.57;;;17.00;92.00;;;;;;5034436;28;20025;-76
2023/06/27 05:52:22;;;;;;;17.58;4.60;;;17.00;92.20;;;;;;5001228;28;20026;-77
2023/06/27 05:54:48;;;;;;;12.68;4.70;;;17.10;92.40;;;;;;5034505;28;20025;-77
2023/06/27 05:57:14;;;;;;;16.45;4.50;;;17.10;92.50;;;;;;5035744;28;20136;-77
2023/06/27 05:59:40;;;;;;;14.90;3.00;;;17.10;92.40;;;;;;5034402;28;20112;-76
2023/06/27 06:02:06;;;;;;;15.95;4.28;;;17.10;92.40;;;;;;5035505;28;20069;-76
2023/06/27 06:04:31;;;;;;;11.38;4.25;;;17.10;92.50;;;;;;5034510;28;20033;-76
2023/06/27 06:07:00;;;;;;;12.02;3.72;;;17.20;92.60;;;;;;5034412;28;20483;-76
2023/06/27 06:09:26;;;;;;;17.15;4.78;;;17.20;92.60;;;;;;5017960;28;20022;-77
2023/06/27 06:11:52;;;;;;;15.73;5.35;;;17.10;92.70;;;;;;5034997;28;20025;-75
2023/06/27 06:14:17;;;;;;;12.40;4.75;;;17.20;92.80;;;;;;5001881;28;20122;-76
2023/06/27 06:16:43;;;;;;;16.13;4.32;;;17.20;92.80;;;;;;4997780;28;20072;-79
2023/06/27 06:19:11;;;;;;;12.05;3.65;;;17.20;92.80;;;;;;5014058;28;20064;-79
2023/06/27 06:21:37;;;;;;;12.05;4.25;;;17.20;92.90;;;;;;5014219;28;20110;-79
2023/06/27 06:24:03;;;;;;;11.75;4.35;;;17.20;93.10;;;;;;5012362;28;20029;-79
2023/06/27 06:26:28;;;;;;;13.77;4.18;;;17.30;93.20;;;;;;5013852;28;20113;-77
2023/06/27 06:28:54;;;;;;;9.68;4.03;;;17.40;93.30;;;;;;5015221;28;20029;-76
2023/06/27 06:31:21;;;;;;;12.93;4.20;;;17.40;93.40;;;;;;4997566;28;20045;-76
2023/06/27 06:33:48;;;;;;;13.13;4.20;;;17.50;93.50;;;;;;4997655;28;20037;-79
2023/06/27 06:36:14;;;;;;;10.15;4.15;;;17.60;93.50;;;;;;5014011;28;20026;-77
2023/06/27 06:38:40;;;;;;;13.07;4.57;;;17.60;93.50;;;;;;5014940;28;20037;-76
2023/06/27 06:41:06;;;;;;;12.55;4.43;;;17.70;93.50;;;;;;5015019;28;20091;-77
2023/06/27 06:43:32;;;;;;;11.25;3.83;;;17.70;93.80;;;;;;5013621;28;20058;-76
2023/06/27 06:45:58;;;;;;;11.93;3.78;;;17.80;93.60;;;;;;4997401;28;20052;-76
2023/06/27 06:48:23;;;;;;;15.20;3.42;;;17.90;93.60;;;;;;5013752;28;20026;-77
2023/06/27 06:50:53;;;;;;;12.02;4.15;;;17.90;93.40;;;;;;5013595;28;20471;-76
2023/06/27 06:53:19;;;;;;;12.88;3.35;;;18.00;93.30;;;;;;5013628;28;20026;-79
2023/06/27 06:55:45;;;;;;;12.95;4.50;;;18.10;93.20;;;;;;5013576;28;20021;-80
2023/06/27 06:58:10;;;;;;;13.30;3.83;;;18.20;93.10;;;;;;4997231;28;20026;-80
2023/06/27 07:00:36;;;;;;;11.80;3.72;;;18.20;92.90;;;;;;5013652;28;20068;-77
2023/06/27 07:03:09;;;;;;;10.45;2.50;;;18.30;92.70;;;;;;4996025;28;20033;-78
2023/06/27 07:05:38;;;;;;;7.35;2.40;;;18.30;92.40;;;;;;5015151;28;20022;-78
2023/06/27 07:08:04;;;;;;;7.63;1.80;;;18.40;92.10;;;;;;4996886;28;20018;-76
2023/06/27 07:10:31;;;;;;;6.00;1.90;;;18.40;91.80;;;;;;5014503;28;20410;-79
2023/06/27 07:12:57;;;;;;;6.68;1.58;;;18.50;91.50;;;;;;5013569;28;20026;-77
2023/06/27 07:15:23;;;;;;;8.20;1.70;;;18.60;91.20;;;;;;5013242;28;20125;-77
2023/06/27 07:17:52;;;;;;;10.57;1.92;;;18.60;90.80;;;;;;5013327;28;20037;-76
2023/06/27 07:20:28;;;;;;;6.50;1.63;;;18.70;90.50;;;;;;4997116;28;20053;-76
2023/06/27 07:22:53;;;;;;;13.07;1.70;;;18.80;90.10;;;;;;5013027;28;20021;-79
2023/06/27 07:25:19;;;;;;;6.00;1.27;;;18.80;89.60;;;;;;4996727;28;20503;-79
2023/06/27 07:27:46;;;;;;;7.05;1.60;;;18.90;89.10;;;;;;4996692;28;20128;-76
2023/06/27 07:30:12;;;;;;;6.90;1.42;;;19.00;88.70;;;;;;4996582;28;20026;-77
2023/06/27 07:32:38;;;;;;;12.15;1.70;;;19.10;88.10;;;;;;4993481;28;20031;-79
2023/06/27 07:35:04;;;;;;;6.00;1.48;;;19.20;87.40;;;;;;4992886;28;20121;-78
2023/06/27 07:37:30;;;;;;;7.20;1.33;;;19.30;86.80;;;;;;4976622;28;20038;-77
2023/06/27 07:39:57;;;;;;;5.20;1.15;;;19.40;86.30;;;;;;4994203;28;20034;-78
2023/06/27 07:42:24;;;;;;;6.90;0.95;;;19.50;85.60;;;;;;5005522;28;20038;-78
2023/06/27 07:44:49;;;;;;;5.28;1.48;;;19.70;85.00;;;;;;5009188;28;20056;-79
2023/06/27 07:47:15;;;;;;;2.33;0.70;;;19.70;83.80;;;;;;4992286;28;20038;-81
2023/06/27 07:49:41;;;;;;;4.22;1.08;;;19.90;82.90;;;;;;5010198;28;20046;-77
2023/06/27 07:52:07;;;;;;;5.85;1.15;;;19.90;82.30;;;;;;5012709;28;20037;-77
2023/06/27 07:54:33;;;;;;;5.38;0.80;;;20.00;81.90;;;;;;5012218;28;20117;-78
2023/06/27 07:56:59;;;;;;;4.53;0.90;;;20.10;81.20;;;;;;5013059;28;20064;-78
2023/06/27 07:59:25;;;;;;;4.07;0.80;;;20.10;80.70;;;;;;5013759;28;20061;-76
2023/06/27 08:01:50;;;;;;;5.47;0.85;;;20.20;80.00;;;;;;5013945;28;20049;-77
2023/06/27 08:04:16;;;;;;;6.60;0.90;;;20.20;79.50;;;;;;5012482;28;20509;-81
2023/06/27 08:06:42;;;;;;;6.07;0.93;;;20.30;79.00;;;;;;5012471;28;20550;-79
2023/06/27 08:09:08;;;;;;;5.20;0.98;;;20.40;78.40;;;;;;5012332;28;20022;-78
2023/06/27 08:11:34;;;;;;;6.10;1.13;;;20.40;77.90;;;;;;5012509;28;20026;-77
2023/06/27 08:13:59;;;;;;;5.60;1.02;;;20.40;77.50;;;;;;5012232;28;20054;-77
2023/06/27 08:16:25;;;;;;;6.30;0.90;;;20.50;77.00;;;;;;4996097;28;20030;-76
2023/06/27 08:18:51;;;;;;;5.40;0.77;;;20.50;76.70;;;;;;5012459;28;20037;-76
2023/06/27 08:21:17;;;;;;;2.38;0.65;;;20.60;76.40;;;;;;5012443;28;20026;-76
2023/06/27 08:23:42;;;;;;;6.30;0.80;;;20.70;76.30;;;;;;5013504;28;20029;-80
2023/06/27 08:26:12;;;;;;;7.15;1.10;;;20.70;76.00;;;;;;4995860;28;20026;-77
2023/06/27 08:28:38;;;;;;;7.20;0.90;;;20.80;75.70;;;;;;5013411;28;20018;-77
2023/06/27 08:31:04;;;;;;;3.65;0.93;;;20.90;75.60;;;;;;5012223;28;20034;-79
2023/06/27 08:33:29;;;;;;;4.70;0.77;;;21.00;75.20;;;;;;5012064;28;20034;-77
2023/06/27 08:35:55;;;;;;;3.90;0.77;;;21.10;74.80;;;;;;4996170;28;20018;-77
2023/06/27 08:38:21;;;;;;;3.90;0.85;;;21.30;74.60;;;;;;5013386;28;20041;-76
2023/06/27 08:40:52;;;;;;;6.43;0.70;;;21.40;74.30;;;;;;5012252;28;20037;-77
2023/06/27 08:43:17;;;;;;;4.35;0.60;;;21.50;73.70;;;;;;5011989;28;20050;-78
2023/06/27 08:45:43;;;;;;;4.40;1.02;;;21.60;73.00;;;;;;4995910;28;20547;-77
2023/06/27 08:48:11;;;;;;;6.10;1.33;;;21.60;71.80;;;;;;5013350;28;20034;-80
2023/06/27 08:50:41;;;;;;;4.30;0.75;;;21.70;71.40;;;;;;5013475;28;20033;-79
2023/06/27 08:53:10;;;;;;;7.78;0.80;;;21.80;71.00;;;;;;5013122;28;20512;-76
2023/06/27 08:55:37;;;;;;;6.95;0.95;;;21.80;70.40;;;;;;5013132;28;20037;-78
2023/06/27 08:58:04;;;;;;;3.00;0.70;;;21.90;70.10;;;;;;5012184;28;20112;-79
2023/06/27 09:00:31;;;;;;;3.20;0.80;;;21.90;69.50;;;;;;5011978;28;20014;-81
2023/06/27 09:02:57;;;;;;;5.28;0.77;;;22.10;68.90;;;;;;5013220;28;20030;-80
2023/06/27 09:05:23;;;;;;;3.45;0.88;;;22.10;68.10;;;;;;5011923;28;20058;-79
2023/06/27 09:07:49;;;;;;;4.47;0.80;;;22.20;67.80;;;;;;5013142;28;20046;-77
2023/06/27 09:10:15;;;;;;;5.35;0.95;;;22.20;67.40;;;;;;4995581;28;20032;-78
2023/06/27 09:12:43;;;;;;;4.30;0.52;;;22.30;67.20;;;;;;5011883;28;20048;-78
2023/06/27 09:15:10;;;;;;;5.65;0.70;;;22.30;66.90;;;;;;5011690;28;20116;-76
2023/06/27 09:17:37;;;;;;;2.67;0.60;;;22.40;66.10;;;;;;5012992;28;20468;-77
2023/06/27 09:20:05;;;;;;;4.75;0.63;;;22.30;66.00;;;;;;5011906;28;20025;-81
2023/06/27 09:22:31;;;;;;;3.25;0.60;;;22.30;65.40;;;;;;5013124;28;20022;-80
2023/06/27 09:25:16;;;;;;;2.20;0.60;;;22.40;65.30;;;;;;5012006;28;20390;-78
2023/06/27 09:27:42;;;;;;;2.55;0.40;;;22.50;65.10;;;;;;5015089;28;20056;-79
2023/06/27 09:30:10;;;;;;;3.30;0.80;;;22.50;64.50;;;;;;4998930;28;20040;-80
2023/06/27 09:32:55;;;;;;;3.38;0.50;;;22.50;63.80;;;;;;4998903;28;20367;-78
2023/06/27 09:35:21;;;;;;;4.13;0.70;;;22.60;63.20;;;;;;5015143;28;20096;-79
2023/06/27 09:37:48;;;;;;;3.53;0.55;;;22.70;63.30;;;;;;5015085;28;20430;-82
2023/06/27 09:40:18;;;;;;;2.92;0.65;;;22.80;63.20;;;;;;4998777;28;20102;-80
2023/06/27 09:42:51;;;;;;;1.33;0.47;;;22.80;62.50;;;;;;5014912;28;20076;-80
2023/06/27 09:45:17;;;;;;;4.88;0.50;;;22.90;62.00;;;;;;5014865;28;20026;-81
2023/06/27 09:47:43;;;;;;;3.22;0.50;;;22.90;61.00;;;;;;5014874;28;20124;-81
2023/06/27 09:50:09;;;;;;;2.92;0.50;;;23.00;60.40;;;;;;5014917;28;20057;-79
2023/06/27 09:52:35;;;;;;;4.53;0.50;;;23.00;60.20;;;;;;5014873;28;20108;-80
2023/06/27 09:55:00;;;;;;;3.85;0.63;;;23.10;59.90;;;;;;5014660;28;20497;-79
2023/06/27 09:57:29;;;;;;;5.60;0.60;;;23.10;59.40;;;;;;5015986;28;20038;-80
2023/06/27 09:59:58;;;;;;;1.65;0.40;;;23.20;59.30;;;;;;5015134;28;20030;-78
2023/06/27 10:02:28;;;;;;;1.48;0.43;;;23.20;59.30;;;;;;4998531;28;20049;-80
2023/06/27 10:04:54;;;;;;;2.45;0.60;;;23.30;58.90;;;;;;5015900;28;20401;-80
2023/06/27 10:07:20;;;;;;;4.13;0.63;;;23.40;58.50;;;;;;5015801;28;20028;-79
2023/06/27 10:09:46;;;;;;;2.78;0.38;;;23.40;57.60;;;;;;5016047;28;20474;-77
2023/06/27 10:12:14;;;;;;;1.73;0.60;;;23.40;57.50;;;;;;5015690;28;20029;-80
2023/06/27 10:14:44;;;;;;;5.00;0.80;;;23.40;57.20;;;;;;5015691;28;20034;-78
2023/06/27 10:17:11;;;;;;;3.03;0.50;;;23.50;57.20;;;;;;5014612;28;20090;-81
2023/06/27 10:19:38;;;;;;;2.60;0.55;;;23.50;57.00;;;;;;5015640;28;20021;-79
2023/06/27 10:22:10;;;;;;;3.80;0.40;;;23.60;56.90;;;;;;5014455;28;20034;-80
2023/06/27 10:24:41;;;;;;;4.65;0.60;;;23.60;56.60;;;;;;5015439;28;20026;-78
2023/06/27 10:27:07;;;;;;;2.45;0.40;;;23.70;56.50;;;;;;5015480;28;20034;-80
2023/06/27 10:29:38;;;;;;;3.45;0.55;;;23.70;56.50;;;;;;4998258;28;20116;-81
2023/06/27 10:32:07;;;;;;;3.95;0.45;;;23.70;56.60;;;;;;5014814;28;20030;-78
2023/06/27 10:34:39;;;;;;;2.97;0.50;;;23.80;56.60;;;;;;5010110;28;20030;-77
2023/06/27 10:37:05;;;;;;;3.33;0.52;;;23.80;56.60;;;;;;5012046;28;20188;-77
2023/06/27 10:39:33;;;;;;;5.30;0.60;;;23.80;56.30;;;;;;5012569;28;20484;-80
2023/06/27 10:42:06;;;;;;;2.97;0.30;;;23.80;56.50;;;;;;5012577;28;20029;-78
2023/06/27 10:44:48;;;;;;;3.50;0.68;;;23.90;56.30;;;;;;5013804;28;20115;-78
2023/06/27 10:47:17;;;;;;;6.38;0.57;;;23.90;56.20;;;;;;5014459;28;20386;-80
2023/06/27 10:49:47;;;;;;;4.53;0.50;;;23.90;56.20;;;;;;5012866;28;20137;-79
2023/06/27 10:52:24;;;;;;;2.50;0.30;;;23.90;55.90;;;;;;5015142;28;20478;-80
2023/06/27 10:55:15;;;;;;;4.20;0.65;;;23.90;56.00;;;;;;5014781;28;20462;-80
2023/06/27 10:58:02;;;;;;;4.25;0.55;;;24.00;55.80;;;;;;5014927;28;20026;-77
2023/06/27 11:00:34;;;;;;;2.83;0.75;;;24.00;55.60;;;;;;5013687;28;20018;-80
2023/06/27 11:03:03;;;;;;;3.55;0.68;;;24.00;55.50;;;;;;5013672;28;20034;-78
2023/06/27 11:05:43;;;;;;;4.60;0.60;;;24.00;55.40;;;;;;5014795;28;20028;-77
2023/06/27 11:08:13;;;;;;;2.97;0.45;;;24.10;55.10;;;;;;5014617;28;20045;-81
2023/06/27 11:10:49;;;;;;;4.20;0.38;;;24.10;55.20;;;;;;5014714;28;20040;-82
2023/06/27 11:13:21;;;;;;;3.00;0.50;;;24.20;55.30;;;;;;5014533;28;20076;-79
2023/06/27 11:15:48;;;;;;;2.87;0.53;;;24.20;54.90;;;;;;5014664;28;20034;-78
2023/06/27 11:18:18;;;;;;;2.35;0.50;;;24.40;54.70;;;;;;5014642;28;20480;-79
2023/06/27 11:20:45;;;;;;;2.17;0.45;;;24.50;54.50;;;;;;5014819;28;20056;-78
2023/06/27 11:23:15;;;;;;;4.32;0.60;;;24.60;54.30;;;;;;5014340;28;20034;-77
2023/06/27 11:25:43;;;;;;;2.35;0.50;;;24.60;53.70;;;;;;5012946;28;20367;-79
2023/06/27 11:28:10;;;;;;;2.22;0.40;;;24.70;53.20;;;;;;5013053;28;20026;-77
2023/06/27 11:30:37;;;;;;;1.00;0.30;;;24.60;53.80;;;;;;5013139;28;20034;-80
2023/06/27 11:33:03;;;;;;;2.63;0.60;;;24.70;52.70;;;;;;5013037;28;20022;-78
2023/06/27 11:35:31;;;;;;;2.90;0.82;;;24.70;52.40;;;;;;5014314;28;20037;-80
2023/06/27 11:37:56;;;;;;;2.17;0.45;;;24.70;52.30;;;;;;5014434;28;20018;-79
2023/06/27 11:40:26;;;;;;;3.55;0.38;;;24.80;52.30;;;;;;5013171;28;20486;-78
2023/06/27 11:43:14;;;;;;;2.78;0.43;;;24.80;52.20;;;;;;5013928;28;20038;-80
2023/06/27 11:45:44;;;;;;;2.08;0.45;;;24.90;51.80;;;;;;4996636;28;20022;-78
2023/06/27 11:48:10;;;;;;;1.55;0.38;;;25.00;51.90;;;;;;5012505;28;20415;-80
2023/06/27 11:50:51;;;;;;;3.95;0.60;;;25.20;51.80;;;;;;5012544;28;20030;-80
2023/06/27 11:53:27;;;;;;;2.65;0.50;;;25.40;51.70;;;;;;5014005;28;20026;-79
2023/06/27 11:55:54;;;;;;;4.80;0.50;;;25.60;51.60;;;;;;5014086;28;20045;-80
2023/06/27 11:58:30;;;;;;;3.85;0.47;;;25.70;51.30;;;;;;4996864;28;20029;-80
2023/06/27 12:01:00;;;;;;;2.60;0.47;;;25.70;51.20;;;;;;4996787;28;20112;-79
2023/06/27 12:03:27;;;;;;;3.55;0.50;;;25.80;51.00;;;;;;5013979;28;20018;-79
2023/06/27 12:05:55;;;;;;;2.67;0.40;;;25.70;50.90;;;;;;5013662;28;20026;-77
2023/06/27 12:08:23;;;;;;;1.83;0.40;;;25.90;51.10;;;;;;5013593;28;20018;-80
2023/06/27 12:11:01;;;;;;;1.77;0.32;;;26.00;51.20;;;;;;4996430;28;20026;-79
2023/06/27 12:13:34;;;;;;;4.05;0.50;;;26.20;51.00;;;;;;4996721;28;20022;-77
2023/06/27 12:16:00;;;;;;;2.03;0.30;;;26.30;50.60;;;;;;5012409;28;20026;-77
2023/06/27 12:18:27;;;;;;;3.03;0.32;;;26.40;50.50;;;;;;4996051;28;20137;-79
2023/06/27 12:20:54;;;;;;;3.55;0.38;;;26.50;50.40;;;;;;5012377;28;20485;-78
2023/06/27 12:23:20;;;;;;;1.70;0.35;;;26.40;50.20;;;;;;4995947;28;20021;-80
2023/06/27 12:25:47;;;;;;;3.67;0.40;;;26.40;50.20;;;;;;4996110;28;20498;-77
2023/06/27 12:28:13;;;;;;;3.63;0.50;;;26.40;49.90;;;;;;5013443;28;20176;-78
2023/06/27 12:30:39;;;;;;;2.38;0.45;;;26.30;49.80;;;;;;4995985;28;20037;-77
2023/06/27 12:33:08;;;;;;;3.80;0.50;;;26.30;49.70;;;;;;5013393;28;20030;-78
2023/06/27 12:35:34;;;;;;;2.50;0.40;;;26.30;49.60;;;;;;5013331;28;20022;-81
2023/06/27 12:38:00;;;;;;;3.75;0.40;;;26.40;49.60;;;;;;4995773;28;20033;-79
2023/06/27 12:40:25;;;;;;;1.23;0.40;;;26.60;49.50;;;;;;4995709;28;20026;-76
2023/06/27 12:42:53;;;;;;;3.33;0.40;;;26.80;49.20;;;;;;5011721;28;20034;-80
2023/06/27 12:45:19;;;;;;;3.63;0.32;;;26.80;48.60;;;;;;5012064;28;20054;-78